Cherryville, Missouri
Current Conditions -  °F | °C
As of 10:53 PM on Tuesday 25 Nov 2014 (Local Time) from KVIH Reporting Station
Clear Clear  
Wind Chill: 17°   Ceiling: Unl
Heat Index: 25°   Visibility: 10mi
Dew Point: 17°   Wind: 7mph
Humidity: 72%   Direction: 160°SSE
Pressure: 30.1"   Gusts: NA
Location:  37.85°N, 91.28°W
Report Text: KVIH 260453Z AUTO 16006KT 10SM CLR M04/M08 A3010 RMK AO2 SLP205 T10391083
Loading
Personal Weather Stations






























Interactive Weather Map New forecast layout! Learn more

10-Day Weather Forecast

Advertisements
Track Severe Weather on mobile